createdAt,value
2022-09-14T00:01:28.894Z,19.09
2022-09-14T00:03:58.502Z,19.02
2022-09-14T00:06:26.244Z,19.13
2022-09-14T00:08:55.294Z,19.07
2022-09-14T00:11:24.021Z,19.14
2022-09-14T00:13:51.532Z,19.10
2022-09-14T00:16:21.940Z,19.15
2022-09-14T00:18:57.582Z,19.03
2022-09-14T00:21:24.989Z,19.13
2022-09-14T00:23:51.766Z,19.08
2022-09-14T00:26:21.636Z,19.27
2022-09-14T00:28:51.920Z,19.25
2022-09-14T00:31:20.189Z,19.26
2022-09-14T00:33:48.578Z,19.25
2022-09-14T00:36:27.265Z,19.21
2022-09-14T00:38:56.832Z,19.26
2022-09-14T00:41:27.597Z,19.26
2022-09-14T00:44:13.065Z,19.41
2022-09-14T00:46:48.371Z,19.49
2022-09-14T00:49:30.198Z,19.65
2022-09-14T00:52:04.106Z,19.81
2022-09-14T00:54:31.571Z,19.88
2022-09-14T00:57:01.647Z,19.97
2022-09-14T00:59:31.749Z,19.74
2022-09-14T01:01:58.903Z,19.91
2022-09-14T01:04:26.380Z,20.00
2022-09-14T01:07:03.476Z,20.10
2022-09-14T01:09:44.431Z,20.09
2022-09-14T01:12:30.339Z,20.14
2022-09-14T01:15:46.322Z,20.12
2022-09-14T01:18:20.713Z,20.16
2022-09-14T01:20:50.726Z,20.29
2022-09-14T01:23:47.895Z,20.20
2022-09-14T01:26:26.515Z,20.33
2022-09-14T01:29:13.845Z,20.31
2022-09-14T01:31:48.196Z,20.47
2022-09-14T01:34:55.365Z,20.49
2022-09-14T01:37:31.505Z,20.54
2022-09-14T01:40:11.703Z,20.50
2022-09-14T01:42:42.584Z,20.53
2022-09-14T01:45:13.489Z,20.59
2022-09-14T01:47:47.408Z,20.63
2022-09-14T01:50:26.306Z,20.40
2022-09-14T01:52:59.703Z,20.55
2022-09-14T01:55:33.369Z,20.68
2022-09-14T01:58:08.430Z,20.63
2022-09-14T02:00:40.025Z,20.64
2022-09-14T02:03:29.691Z,20.59
2022-09-14T02:06:06.661Z,20.61
2022-09-14T02:08:34.517Z,20.71
2022-09-14T02:11:02.109Z,20.75
2022-09-14T02:13:29.533Z,20.66
2022-09-14T02:15:56.399Z,20.67
2022-09-14T02:18:23.167Z,20.70
2022-09-14T02:21:00.561Z,20.61
2022-09-14T02:23:27.865Z,20.59
2022-09-14T02:25:54.935Z,20.56
2022-09-14T02:28:22.299Z,20.55
2022-09-14T02:31:27.637Z,20.45
2022-09-14T02:34:06.258Z,20.45
2022-09-14T02:36:48.309Z,20.36
2022-09-14T02:39:22.655Z,20.21
2022-09-14T02:41:57.040Z,20.33
2022-09-14T02:44:39.227Z,20.17
2022-09-14T02:47:37.750Z,20.16
2022-09-14T02:50:21.190Z,20.18
2022-09-14T02:53:06.394Z,20.20
2022-09-14T02:55:37.816Z,20.12
2022-09-14T02:58:09.868Z,20.21
2022-09-14T03:00:41.178Z,20.13
2022-09-14T03:03:10.728Z,20.17
2022-09-14T03:05:38.063Z,20.14
2022-09-14T03:08:05.124Z,20.17
2022-09-14T03:10:32.684Z,20.16
2022-09-14T03:12:59.455Z,20.21
2022-09-14T03:15:27.434Z,20.26
2022-09-14T03:17:54.469Z,20.38
2022-09-14T03:20:26.917Z,20.33
2022-09-14T03:22:54.160Z,20.37
2022-09-14T03:25:23.241Z,20.32
2022-09-14T03:27:51.237Z,20.33
2022-09-14T03:30:19.519Z,20.27
2022-09-14T03:32:46.514Z,20.25
2022-09-14T03:35:13.970Z,20.29
2022-09-14T03:37:42.502Z,20.22
2022-09-14T03:40:11.827Z,20.15
2022-09-14T03:42:44.217Z,20.21
2022-09-14T03:45:12.354Z,20.21
2022-09-14T03:47:39.852Z,20.28
2022-09-14T03:50:08.582Z,20.16
2022-09-14T03:52:36.684Z,20.09
2022-09-14T03:55:05.484Z,20.17
2022-09-14T03:57:33.067Z,20.20
2022-09-14T03:59:59.826Z,20.07
2022-09-14T04:02:29.399Z,20.21
2022-09-14T04:04:56.230Z,20.20
2022-09-14T04:07:23.015Z,20.23
2022-09-14T04:09:49.776Z,20.06
2022-09-14T04:12:16.658Z,20.11
2022-09-14T04:14:43.382Z,19.96
2022-09-14T04:17:10.077Z,19.98
2022-09-14T04:19:38.304Z,19.95
2022-09-14T04:22:05.482Z,20.09
2022-09-14T04:24:32.289Z,20.01
2022-09-14T04:26:59.181Z,20.07
2022-09-14T04:29:26.126Z,20.17
2022-09-14T04:31:52.875Z,20.15
2022-09-14T04:34:19.696Z,20.09
2022-09-14T04:36:46.513Z,20.11
2022-09-14T04:39:14.037Z,19.98
2022-09-14T04:41:41.312Z,20.13
2022-09-14T04:44:08.012Z,20.17
2022-09-14T04:46:40.068Z,20.13
2022-09-14T04:49:10.441Z,20.27
2022-09-14T04:51:37.916Z,20.30
2022-09-14T04:54:07.177Z,20.18
2022-09-14T04:56:35.950Z,20.07
2022-09-14T04:59:04.566Z,20.03
2022-09-14T05:01:37.257Z,20.04
2022-09-14T05:04:05.272Z,19.97
2022-09-14T05:06:35.281Z,19.89
2022-09-14T05:09:03.986Z,19.78
2022-09-14T05:11:33.085Z,19.79
2022-09-14T05:14:01.144Z,19.78
2022-09-14T05:16:30.694Z,19.77
2022-09-14T05:19:01.367Z,19.62
2022-09-14T05:21:29.802Z,19.67
2022-09-14T05:23:58.868Z,19.65
2022-09-14T05:26:27.384Z,19.49
2022-09-14T05:28:56.426Z,19.59
2022-09-14T05:31:24.916Z,19.72
2022-09-14T05:33:52.976Z,19.52
2022-09-14T05:36:20.039Z,19.46
2022-09-14T05:38:47.076Z,19.44
2022-09-14T05:41:15.769Z,19.52
2022-09-14T05:43:43.477Z,19.42
2022-09-14T05:46:12.588Z,19.16
2022-09-14T05:48:40.026Z,19.39
2022-09-14T05:51:14.142Z,19.41
2022-09-14T05:53:41.147Z,19.35
2022-09-14T05:56:10.500Z,19.23
2022-09-14T05:58:38.910Z,19.29
2022-09-14T06:01:16.014Z,19.07
2022-09-14T06:03:44.086Z,18.98
2022-09-14T06:06:12.703Z,19.08
2022-09-14T06:08:39.817Z,19.04
2022-09-14T06:11:15.257Z,19.02
2022-09-14T06:13:42.341Z,18.98
2022-09-14T06:16:11.971Z,18.99
2022-09-14T06:18:40.137Z,18.88
2022-09-14T06:21:08.246Z,18.98
2022-09-14T06:23:35.554Z,18.85
2022-09-14T06:26:04.656Z,18.93
2022-09-14T06:28:32.273Z,18.96
2022-09-14T06:30:59.345Z,19.03
2022-09-14T06:33:26.226Z,19.22
2022-09-14T06:36:00.247Z,19.45
2022-09-14T06:38:28.679Z,19.47
2022-09-14T06:41:00.437Z,19.54
2022-09-14T06:43:32.113Z,19.59
2022-09-14T06:46:01.498Z,19.67
2022-09-14T06:48:31.070Z,19.60
2022-09-14T06:50:58.543Z,19.63
2022-09-14T06:53:25.836Z,19.64
2022-09-14T06:55:52.861Z,19.58
2022-09-14T06:58:19.733Z,19.49
2022-09-14T07:00:46.476Z,19.55
2022-09-14T07:03:13.226Z,19.55
2022-09-14T07:05:40.095Z,19.49
2022-09-14T07:08:11.450Z,19.53
2022-09-14T07:10:38.923Z,19.45
2022-09-14T07:13:05.768Z,19.53
2022-09-14T07:15:33.457Z,19.39
2022-09-14T07:18:00.309Z,19.63
2022-09-14T07:20:27.242Z,19.61
2022-09-14T07:22:53.945Z,19.69
2022-09-14T07:25:20.683Z,19.67
2022-09-14T07:27:47.724Z,19.65
2022-09-14T07:30:14.635Z,19.61
2022-09-14T07:32:41.388Z,19.72
2022-09-14T07:35:08.844Z,19.77
2022-09-14T07:37:35.759Z,19.74
2022-09-14T07:40:02.694Z,19.62
2022-09-14T07:42:29.620Z,19.45
2022-09-14T07:44:56.452Z,19.55
2022-09-14T07:47:23.144Z,19.59
2022-09-14T07:49:50.013Z,19.63
2022-09-14T07:52:16.725Z,19.57
2022-09-14T07:54:43.476Z,19.62
2022-09-14T07:57:10.336Z,19.58
2022-09-14T07:59:37.592Z,19.56
2022-09-14T08:02:09.061Z,19.57
2022-09-14T08:04:36.445Z,19.61
2022-09-14T08:07:03.923Z,19.61
2022-09-14T08:09:30.825Z,19.72
2022-09-14T08:11:58.313Z,19.66
2022-09-14T08:14:25.541Z,19.77
2022-09-14T08:16:52.520Z,19.82
2022-09-14T08:19:21.179Z,19.76
2022-09-14T08:21:48.289Z,19.79
2022-09-14T08:24:17.715Z,19.82
2022-09-14T08:26:44.870Z,19.90
2022-09-14T08:29:18.933Z,19.97
2022-09-14T08:31:47.297Z,19.92
2022-09-14T08:34:15.825Z,19.91
2022-09-14T08:36:44.115Z,19.96
2022-09-14T08:39:13.619Z,19.89
2022-09-14T08:41:49.969Z,19.95
2022-09-14T08:44:24.917Z,20.02
2022-09-14T08:47:07.428Z,20.00
2022-09-14T08:49:47.936Z,20.03
2022-09-14T08:52:40.904Z,20.05
2022-09-14T08:55:17.971Z,20.09
2022-09-14T08:57:54.129Z,20.17
2022-09-14T09:00:30.319Z,20.20
2022-09-14T09:03:12.695Z,20.10
2022-09-14T09:05:47.591Z,20.03
2022-09-14T09:08:30.433Z,20.03
2022-09-14T09:11:00.791Z,20.01
2022-09-14T09:13:33.639Z,20.04
2022-09-14T09:16:05.059Z,20.02
2022-09-14T09:18:51.858Z,19.94
2022-09-14T09:21:25.497Z,19.95
2022-09-14T09:23:56.090Z,19.96
2022-09-14T09:26:29.003Z,19.95
2022-09-14T09:28:59.654Z,19.83
2022-09-14T09:31:32.907Z,19.98
2022-09-14T09:34:00.971Z,20.07
2022-09-14T09:36:36.692Z,20.01
2022-09-14T09:39:05.493Z,20.07
2022-09-14T09:41:44.837Z,20.11
2022-09-14T09:44:11.973Z,20.07
2022-09-14T09:46:54.120Z,20.03
2022-09-14T09:49:25.867Z,20.10
2022-09-14T09:51:54.185Z,19.99
2022-09-14T09:54:21.089Z,20.12
2022-09-14T09:57:03.225Z,20.16
2022-09-14T09:59:35.913Z,20.28
2022-09-14T10:02:24.702Z,20.28
2022-09-14T10:05:00.841Z,20.37
2022-09-14T10:07:29.899Z,20.39
2022-09-14T10:10:16.617Z,20.60
2022-09-14T10:12:55.693Z,20.72
2022-09-14T10:15:30.910Z,20.84
2022-09-14T10:18:12.804Z,20.92
2022-09-14T10:20:43.294Z,20.85
2022-09-14T10:23:31.577Z,20.86
2022-09-14T10:26:13.476Z,20.86
2022-09-14T10:28:48.877Z,20.87
2022-09-14T10:31:16.076Z,21.01
2022-09-14T10:33:43.065Z,21.09
2022-09-14T10:36:29.506Z,21.42
2022-09-14T10:39:26.268Z,21.44
2022-09-14T10:42:14.561Z,21.49
2022-09-14T10:45:10.008Z,21.63
2022-09-14T10:48:07.482Z,21.80
2022-09-14T10:51:06.273Z,21.85
2022-09-14T10:53:42.129Z,21.75
2022-09-14T10:56:17.317Z,21.97
2022-09-14T10:59:21.604Z,22.53
2022-09-14T11:02:13.310Z,22.79
2022-09-14T11:05:04.990Z,22.82
2022-09-14T11:07:37.535Z,22.73
2022-09-14T11:10:22.768Z,22.75
2022-09-14T11:12:49.426Z,22.75
2022-09-14T11:15:20.859Z,22.60
2022-09-14T11:18:12.239Z,22.54
2022-09-14T11:20:52.837Z,22.40
2022-09-14T11:23:48.288Z,22.34
2022-09-14T11:26:22.589Z,22.50
2022-09-14T11:28:56.129Z,22.37
2022-09-14T11:31:33.347Z,22.84
2022-09-14T11:34:33.398Z,22.88
2022-09-14T11:37:06.991Z,23.24
2022-09-14T11:40:03.388Z,23.68
2022-09-14T11:42:44.770Z,23.76
2022-09-14T11:45:23.748Z,23.31
2022-09-14T11:47:59.775Z,23.65
2022-09-14T11:50:30.780Z,24.22
2022-09-14T11:53:24.449Z,24.72
2022-09-14T11:55:51.532Z,24.57
2022-09-14T11:58:21.940Z,24.79
2022-09-14T12:01:26.994Z,24.60
2022-09-14T12:04:15.033Z,24.52
2022-09-14T12:06:54.836Z,25.10
2022-09-14T12:09:21.502Z,26.14
2022-09-14T12:11:49.720Z,26.16
2022-09-14T12:14:29.037Z,26.10
2022-09-14T12:17:38.438Z,26.10
2022-09-14T12:20:30.608Z,26.55
2022-09-14T12:23:27.108Z,26.76
2022-09-14T12:25:53.853Z,27.50
2022-09-14T12:28:35.402Z,27.22
2022-09-14T12:31:05.260Z,26.88
2022-09-14T12:33:32.314Z,26.52
2022-09-14T12:36:06.033Z,27.52
2022-09-14T12:38:38.634Z,28.20
2022-09-14T12:41:08.430Z,28.27
2022-09-14T12:43:35.437Z,27.86
2022-09-14T12:46:20.316Z,27.67
2022-09-14T12:48:51.196Z,28.36
2022-09-14T12:51:27.093Z,29.29
2022-09-14T12:54:09.219Z,31.16
2022-09-14T12:56:42.813Z,32.59
2022-09-14T12:59:18.159Z,33.83
2022-09-14T13:02:14.637Z,33.92
2022-09-14T13:04:42.395Z,32.35
2022-09-14T13:07:19.810Z,32.41
2022-09-14T13:09:52.619Z,32.49
2022-09-14T13:12:30.285Z,31.07
2022-09-14T13:15:01.092Z,29.90
2022-09-14T13:17:28.252Z,29.06
2022-09-14T13:19:57.136Z,28.25
2022-09-14T13:22:26.709Z,27.74
2022-09-14T13:24:54.106Z,27.32
2022-09-14T13:27:31.570Z,27.14
2022-09-14T13:30:24.262Z,27.06
2022-09-14T13:32:54.745Z,26.88
2022-09-14T13:35:27.235Z,26.78
2022-09-14T13:37:54.458Z,26.63
2022-09-14T13:40:28.630Z,26.55
2022-09-14T13:42:56.914Z,26.32
2022-09-14T13:45:24.799Z,26.16
2022-09-14T13:47:53.605Z,26.02
2022-09-14T13:50:24.258Z,25.84
2022-09-14T13:53:02.076Z,25.75
2022-09-14T13:55:43.106Z,25.83
2022-09-14T13:58:09.863Z,25.78
2022-09-14T14:00:55.617Z,25.61
2022-09-14T14:03:37.039Z,25.83
2022-09-14T14:06:27.277Z,25.68
2022-09-14T14:08:59.089Z,25.66
2022-09-14T14:11:33.557Z,25.58
2022-09-14T14:14:13.856Z,25.50
2022-09-14T14:16:41.330Z,25.36
2022-09-14T14:19:28.042Z,25.26
2022-09-14T14:22:15.377Z,25.09
2022-09-14T14:25:09.235Z,25.23
2022-09-14T14:27:33.648Z,25.05
2022-09-14T14:30:02.336Z,25.17
2022-09-14T14:32:29.450Z,25.02
2022-09-14T14:34:56.309Z,25.06
2022-09-14T14:37:23.261Z,25.08
2022-09-14T14:39:50.332Z,25.08
2022-09-14T14:42:18.202Z,25.26
2022-09-14T14:44:45.421Z,25.41
2022-09-14T14:47:16.103Z,25.22
2022-09-14T14:49:42.928Z,25.34
2022-09-14T14:52:10.397Z,25.00
2022-09-14T14:54:37.371Z,24.89
2022-09-14T14:57:04.736Z,24.96
2022-09-14T14:59:32.206Z,25.00
2022-09-14T15:01:58.891Z,25.04
2022-09-14T15:04:26.374Z,25.15
2022-09-14T15:06:53.668Z,25.07
2022-09-14T15:09:26.352Z,25.09
2022-09-14T15:12:13.555Z,24.79
2022-09-14T15:14:40.398Z,24.81
2022-09-14T15:17:07.296Z,24.76
2022-09-14T15:19:33.988Z,24.68
2022-09-14T15:22:01.773Z,24.76
2022-09-14T15:24:29.362Z,24.79
2022-09-14T15:26:56.143Z,24.78
2022-09-14T15:29:22.952Z,24.61
2022-09-14T15:31:49.753Z,24.73
2022-09-14T15:34:16.445Z,24.83
2022-09-14T15:36:50.523Z,24.61
2022-09-14T15:39:20.228Z,24.46
2022-09-14T15:41:47.413Z,24.41
2022-09-14T15:44:15.719Z,24.44
2022-09-14T15:46:44.618Z,24.35
2022-09-14T15:49:13.860Z,24.43
2022-09-14T15:51:45.179Z,24.41
2022-09-14T15:54:13.060Z,24.23
2022-09-14T15:56:39.873Z,24.18
2022-09-14T15:59:07.004Z,24.22
2022-09-14T16:01:33.826Z,24.31
2022-09-14T16:04:05.713Z,24.13
2022-09-14T16:06:34.726Z,24.12
2022-09-14T16:09:03.599Z,24.01
2022-09-14T16:11:31.317Z,24.03
2022-09-14T16:13:58.287Z,24.01
2022-09-14T16:16:27.558Z,23.87
2022-09-14T16:18:54.488Z,23.75
2022-09-14T16:21:24.019Z,23.82
2022-09-14T16:23:55.144Z,23.65
2022-09-14T16:26:25.352Z,23.54
2022-09-14T16:28:53.109Z,23.60
2022-09-14T16:31:25.798Z,23.41
2022-09-14T16:33:55.394Z,23.37
2022-09-14T16:36:24.395Z,23.41
2022-09-14T16:38:51.195Z,23.37
2022-09-14T16:41:18.556Z,23.29
2022-09-14T16:43:45.497Z,23.24
2022-09-14T16:46:16.270Z,23.41
2022-09-14T16:48:50.323Z,23.42
2022-09-14T16:51:19.707Z,23.34
2022-09-14T16:53:47.986Z,23.24
2022-09-14T16:56:19.215Z,23.26
2022-09-14T16:58:47.958Z,23.24
2022-09-14T17:01:19.549Z,23.19
2022-09-14T17:03:48.976Z,23.17
2022-09-14T17:06:21.234Z,23.07
2022-09-14T17:08:48.790Z,23.13
2022-09-14T17:11:16.963Z,23.05
2022-09-14T17:13:45.079Z,23.20
2022-09-14T17:16:18.321Z,23.11
2022-09-14T17:18:48.859Z,23.11
2022-09-14T17:21:22.277Z,23.15
2022-09-14T17:23:49.261Z,23.01
2022-09-14T17:26:19.025Z,23.00
2022-09-14T17:28:47.521Z,22.88
2022-09-14T17:31:19.671Z,22.76
2022-09-14T17:33:47.567Z,22.97
2022-09-14T17:36:15.561Z,22.85
2022-09-14T17:38:43.408Z,22.79
2022-09-14T17:41:13.089Z,22.83
2022-09-14T17:43:40.624Z,22.76
2022-09-14T17:46:12.999Z,22.80
2022-09-14T17:48:41.495Z,22.74
2022-09-14T17:51:10.493Z,22.76
2022-09-14T17:53:43.150Z,22.66
2022-09-14T17:56:13.533Z,22.72
2022-09-14T17:58:42.052Z,22.48
2022-09-14T18:01:18.794Z,22.70
2022-09-14T18:03:51.348Z,22.61
2022-09-14T18:06:19.226Z,22.60
2022-09-14T18:08:46.606Z,22.63
2022-09-14T18:11:17.861Z,22.62
2022-09-14T18:13:47.031Z,22.59
2022-09-14T18:16:16.376Z,22.55
2022-09-14T18:18:43.470Z,22.37
2022-09-14T18:21:11.324Z,22.35
2022-09-14T18:23:38.233Z,22.33
2022-09-14T18:26:06.721Z,22.30
2022-09-14T18:28:35.039Z,22.41
2022-09-14T18:31:02.485Z,22.40
2022-09-14T18:33:29.762Z,22.27
2022-09-14T18:35:57.127Z,22.41
2022-09-14T18:38:24.129Z,22.26
2022-09-14T18:40:51.186Z,22.28
2022-09-14T18:43:18.212Z,22.27
2022-09-14T18:45:45.714Z,22.27
2022-09-14T18:48:13.411Z,22.14
2022-09-14T18:50:41.476Z,22.09
2022-09-14T18:53:08.548Z,22.21
2022-09-14T18:55:35.552Z,22.12
2022-09-14T18:58:02.609Z,22.15
2022-09-14T19:00:29.393Z,22.21
2022-09-14T19:02:57.283Z,22.19
2022-09-14T19:05:25.556Z,22.13
2022-09-14T19:07:52.733Z,22.18
2022-09-14T19:10:19.636Z,22.21
2022-09-14T19:12:46.544Z,22.13
2022-09-14T19:15:13.505Z,22.09
2022-09-14T19:17:40.248Z,22.10
2022-09-14T19:20:08.569Z,22.10
2022-09-14T19:22:35.491Z,21.94
2022-09-14T19:25:02.191Z,22.05
2022-09-14T19:27:29.094Z,22.05
2022-09-14T19:29:55.884Z,21.93
2022-09-14T19:32:22.714Z,21.99
2022-09-14T19:34:49.802Z,21.91
2022-09-14T19:37:16.591Z,21.82
2022-09-14T19:39:43.986Z,21.97
2022-09-14T19:42:11.181Z,22.07
2022-09-14T19:44:37.864Z,21.95
2022-09-14T19:47:04.716Z,21.89
2022-09-14T19:49:31.505Z,22.01
2022-09-14T19:51:58.217Z,21.92
2022-09-14T19:54:25.381Z,21.98
2022-09-14T19:56:52.332Z,21.85
2022-09-14T19:59:19.061Z,21.89
2022-09-14T20:01:46.345Z,21.99
2022-09-14T20:04:14.278Z,21.98
2022-09-14T20:06:43.577Z,22.00
2022-09-14T20:09:12.555Z,21.88
2022-09-14T20:11:40.858Z,21.88
2022-09-14T20:14:10.289Z,21.52
2022-09-14T20:16:40.068Z,21.78
2022-09-14T20:19:10.619Z,21.72
2022-09-14T20:21:37.781Z,21.80
2022-09-14T20:24:21.993Z,21.86
2022-09-14T20:26:50.592Z,21.84
2022-09-14T20:29:19.009Z,21.84
2022-09-14T20:31:46.693Z,21.93
2022-09-14T20:34:16.496Z,21.89
2022-09-14T20:36:43.251Z,22.00
2022-09-14T20:39:10.464Z,21.87
2022-09-14T20:41:37.594Z,21.90
2022-09-14T20:44:05.010Z,21.85
2022-09-14T20:46:35.491Z,21.82
2022-09-14T20:49:04.484Z,21.92
2022-09-14T20:51:31.848Z,21.93
2022-09-14T20:53:58.628Z,21.88
2022-09-14T20:56:30.068Z,21.91
2022-09-14T20:58:59.601Z,21.99
2022-09-14T21:01:28.925Z,21.94
2022-09-14T21:04:01.286Z,21.93
2022-09-14T21:06:28.066Z,21.99
2022-09-14T21:08:55.519Z,21.80
2022-09-14T21:11:25.076Z,21.80
2022-09-14T21:13:53.867Z,21.82
2022-09-14T21:16:22.429Z,21.81
2022-09-14T21:18:58.421Z,21.84
2022-09-14T21:21:25.761Z,21.94
2022-09-14T21:23:53.873Z,21.87
2022-09-14T21:26:20.767Z,21.75
2022-09-14T21:28:47.593Z,21.47
2022-09-14T21:31:17.872Z,21.76
2022-09-14T21:33:47.358Z,21.52
2022-09-14T21:36:16.206Z,21.61
2022-09-14T21:38:43.279Z,21.55
2022-09-14T21:41:11.694Z,21.67
2022-09-14T21:43:40.186Z,21.59
2022-09-14T21:46:08.970Z,21.72
2022-09-14T21:48:37.047Z,21.71
2022-09-14T21:51:18.737Z,21.62
2022-09-14T21:53:57.470Z,21.40
2022-09-14T21:56:26.890Z,21.38
2022-09-14T21:58:58.632Z,21.09
2022-09-14T22:01:26.245Z,20.98
2022-09-14T22:03:54.294Z,21.10
2022-09-14T22:06:24.300Z,21.00
2022-09-14T22:08:52.453Z,21.00
2022-09-14T22:11:23.387Z,21.03
2022-09-14T22:13:55.262Z,20.92
2022-09-14T22:16:23.311Z,21.02
2022-09-14T22:18:55.896Z,20.95
2022-09-14T22:21:24.598Z,20.94
2022-09-14T22:23:56.300Z,20.99
2022-09-14T22:26:24.126Z,20.90
2022-09-14T22:28:53.129Z,20.76
2022-09-14T22:31:22.654Z,20.74
2022-09-14T22:33:50.468Z,20.69
2022-09-14T22:36:17.381Z,20.57
2022-09-14T22:38:44.259Z,20.35
2022-09-14T22:41:14.116Z,20.59
2022-09-14T22:43:41.108Z,20.56
2022-09-14T22:46:09.008Z,20.54
2022-09-14T22:48:37.139Z,20.55
2022-09-14T22:51:05.758Z,20.49
2022-09-14T22:53:34.457Z,20.29
2022-09-14T22:56:11.229Z,19.89
2022-09-14T22:58:38.373Z,20.05
2022-09-14T23:01:10.474Z,20.08
2022-09-14T23:03:37.377Z,20.09
2022-09-14T23:06:05.104Z,20.36
2022-09-14T23:08:32.677Z,20.30
2022-09-14T23:11:06.842Z,20.26
2022-09-14T23:13:41.917Z,20.40
2022-09-14T23:16:20.539Z,20.27
2022-09-14T23:18:52.449Z,20.39
2022-09-14T23:21:20.185Z,20.40
2022-09-14T23:23:54.934Z,20.39
2022-09-14T23:26:23.127Z,20.47
2022-09-14T23:28:59.012Z,20.44
2022-09-14T23:31:26.633Z,20.44
2022-09-14T23:33:57.179Z,20.39
2022-09-14T23:36:24.683Z,20.38
2022-09-14T23:38:52.155Z,20.40
2022-09-14T23:41:20.726Z,20.40
2022-09-14T23:43:48.156Z,20.42
2022-09-14T23:46:15.986Z,20.37
2022-09-14T23:48:42.930Z,20.41
2022-09-14T23:51:10.884Z,20.34
2022-09-14T23:53:38.844Z,20.27
2022-09-14T23:56:06.623Z,20.10
2022-09-14T23:58:33.600Z,20.18
